createdAt,value
2023-02-27T00:12:45.018Z,4.87
2023-02-27T00:32:45.131Z,4.81
2023-02-27T00:52:45.128Z,4.81
2023-02-27T01:12:45.131Z,4.81
2023-02-27T01:32:45.133Z,4.81
2023-02-27T01:52:45.166Z,4.87
2023-02-27T02:12:45.131Z,4.81
2023-02-27T02:32:45.138Z,4.75
2023-02-27T02:52:45.134Z,4.93
2023-02-27T03:12:45.144Z,4.93
2023-02-27T03:32:45.137Z,4.93
2023-02-27T03:52:45.148Z,4.93
2023-02-27T04:12:45.151Z,4.93
2023-02-27T04:32:45.140Z,4.81
2023-02-27T04:52:45.152Z,4.81
2023-02-27T05:12:45.157Z,4.75
2023-02-27T05:32:45.164Z,4.75
2023-02-27T05:52:45.162Z,4.68
2023-02-27T06:12:45.170Z,4.75
2023-02-27T06:32:45.185Z,4.75
2023-02-27T06:52:45.277Z,4.87
2023-02-27T07:12:45.281Z,4.87
2023-02-27T07:32:45.273Z,4.56
2023-02-27T07:52:45.242Z,4.75
2023-02-27T08:12:45.291Z,4.75
2023-02-27T08:32:45.251Z,4.81
2023-02-27T08:52:45.257Z,4.93
2023-02-27T09:12:45.252Z,4.62
2023-02-27T09:32:45.267Z,4.81
2023-02-27T09:52:45.283Z,4.87
2023-02-27T10:12:45.288Z,4.87
2023-02-27T10:32:45.305Z,4.93
2023-02-27T10:52:45.292Z,5.00
2023-02-27T11:12:45.304Z,5.06
2023-02-27T11:32:45.313Z,5.31
2023-02-27T11:52:45.341Z,5.12
2023-02-27T12:12:45.330Z,5.25
2023-02-27T12:32:45.330Z,5.31
2023-02-27T12:52:45.397Z,5.31
2023-02-27T13:12:45.276Z,5.25
2023-02-27T13:32:45.269Z,5.43
2023-02-27T13:52:45.287Z,5.43
2023-02-27T14:12:45.271Z,5.43
2023-02-27T14:32:45.380Z,5.31
2023-02-27T14:52:45.309Z,5.43
2023-02-27T15:12:45.297Z,5.18
2023-02-27T15:32:45.318Z,5.43
2023-02-27T15:52:45.345Z,5.12
2023-02-27T16:12:45.353Z,5.06
2023-02-27T16:32:45.320Z,5.18
2023-02-27T16:52:45.321Z,5.06
2023-02-27T17:12:45.352Z,5.00
2023-02-27T17:32:45.350Z,4.87
2023-02-27T17:52:45.341Z,4.81
2023-02-27T18:12:45.339Z,4.93
2023-02-27T18:32:45.345Z,4.93
2023-02-27T18:52:45.370Z,4.87
2023-02-27T19:12:45.381Z,5.00
2023-02-27T19:32:45.386Z,5.00
2023-02-27T19:52:45.391Z,4.81
2023-02-27T20:12:45.389Z,4.68
2023-02-27T20:32:45.389Z,4.93
2023-02-27T20:52:45.435Z,4.93
2023-02-27T21:12:45.423Z,4.93
2023-02-27T21:32:45.420Z,4.87
2023-02-27T21:52:45.402Z,4.75
2023-02-27T22:12:45.409Z,4.81
2023-02-27T22:32:45.460Z,4.68
2023-02-27T22:52:45.480Z,4.68
2023-02-27T23:12:45.417Z,4.81
2023-02-27T23:32:45.428Z,4.81
2023-02-27T23:52:45.435Z,4.81
